Terminal Aerodrome Forecast
Issued by NWS

Home | Current Version | Previous Version | Text Only | Print | Product List | Glossary On
Versions: 1 2 3 4 5 6 7 8 9 10 11 12
000
FTPA31 PHFO 211138
TAFHOG
TAF
PHOG 211138Z 2112/2212 05010KT P6SM FEW030 SCT050 BKN300
     FM211700 05014KT P6SM VCSH FEW030 BKN060
     FM212000 05019G28KT P6SM VCSH FEW030 BKN060
     FM220500 05014G22KT P6SM FEW030 SCT050 BKN300
      AMD LTD TO VIS AND WIND TIL 211600=

USA.gov is the U.S. government's official web portal to all federal, state and local government web resources and services.